Dowagiac, MI (49047)

10:27 PM EDT on August 31, 2015 (GMT -0400)
Guse Farms | | Change Station
CLOSE
Current Station
Personal Weather Station
Location: Edwardsburg, MI
Elevation: 823 ft
Nearby Weather Stations

Elev 823 ft 41.94 °N, 86.06 °W | Updated 7 minutes ago

Clear
Clear
70.2 °F
Feels Like 70.2 °F
N
0.0
Wind Variable Wind from WSW
Gusts 0.0 mph

Today
High -- | Low -- °F
--% Chance of Precip.
Yesterday
High -- | Low -- °F
Precip. -- in
7:08 AM 8:20 PM
Waning Gibbous, 92% visible
Pressure 30.04 in
Visibility 4.0 miles
Clouds Clear
Dew Point 68 °F
Humidity 92%
Rainfall in
Snow Depth Not available.
UV 0 out of 12
Pollen 10.40 out of 12
Air Quality Not available.
Flu Activity Not available.
METAR KBEH 010153Z AUTO 00000KT 4SM BR CLR 21/19 A3004 RMK AO2 SLP170 T02060194
Pressure 30.04 in
Visibility 4.0 miles
Clouds Clear
Dew Point 68 °F
Humidity 92%
Rainfall in
Snow Depth Not available.
UV 0 out of 12
Pollen 10.40 out of 12
Air Quality Not available.
Flu Activity Not available.
METAR KBEH 010153Z AUTO 00000KT 4SM BR CLR 21/19 A3004 RMK AO2 SLP170 T02060194

10-Day Weather Forecast

×

Almanac

Astronomy

Aug. 31, 2015 Rise Set
Actual Time
Civil Twilight
Nautical Twilight
Astronomical Twilight
Moon
Length of Visible Light
Length of Day
Tomorrow will be .
, % of the Moon is Illuminated

Today's Extremes

State Highs State Lows

Community

WunderPhotos

Upload Photos

1,851,451 photos uploaded!

WunderBlogs® & News

Nearby

Air Quality

  Air Quality AQ Index Pollutant
Not available.

Snow Depth

Station Depth Elevation

Earthquake Activity

City Distance Mag. Time & Date
Minimum magnitude displayed is 2.5.

Coastal Water Temperatures

Place Temperature

Stations

Nearby Weather Stations

Station Location Temp. Windchill Dew Point Humidity Wind Precip. Elev Updated Type